createdAt,value
2023-02-04T00:18:26.716Z,19.7
2023-02-04T00:48:26.680Z,19.6
2023-02-04T01:18:26.706Z,19.6
2023-02-04T01:48:26.702Z,19.6
2023-02-04T02:48:26.688Z,19.5
2023-02-04T03:18:26.699Z,19.4
2023-02-04T03:48:26.760Z,19.4
2023-02-04T04:18:26.691Z,19.3
2023-02-04T04:48:26.701Z,19.3
2023-02-04T05:18:26.405Z,19.3
2023-02-04T05:48:26.697Z,19.3
2023-02-04T06:18:26.691Z,19.5
2023-02-04T06:48:26.768Z,19.8
2023-02-04T07:18:26.692Z,20.0
2023-02-04T07:48:26.710Z,20.0
2023-02-04T08:18:26.682Z,18.6
2023-02-04T08:48:26.774Z,18.0
2023-02-04T09:18:26.734Z,17.8
2023-02-04T09:48:26.749Z,18.6
2023-02-04T10:18:26.706Z,19.0
2023-02-04T10:48:26.686Z,19.2
2023-02-04T11:18:26.740Z,19.4
2023-02-04T11:48:26.429Z,19.4
2023-02-04T12:18:26.704Z,19.7
2023-02-04T12:48:26.672Z,19.8
2023-02-04T13:18:26.484Z,19.8
2023-02-04T13:48:26.706Z,20.1
2023-02-04T14:18:26.709Z,20.3
2023-02-04T14:48:26.707Z,20.5
2023-02-04T15:18:26.683Z,20.5
2023-02-04T15:48:26.736Z,20.5
2023-02-04T16:18:26.731Z,20.5
2023-02-04T16:48:26.753Z,20.7
2023-02-04T17:18:26.380Z,20.7
2023-02-04T17:48:26.670Z,20.8
2023-02-04T18:18:26.663Z,20.8
2023-02-04T18:48:26.415Z,20.8
2023-02-04T19:18:26.678Z,20.7
2023-02-04T19:48:26.677Z,20.6
2023-02-04T20:18:26.410Z,20.6
2023-02-04T20:48:26.689Z,20.4
2023-02-04T21:18:26.674Z,20.3
2023-02-04T21:48:26.679Z,20.1
2023-02-04T22:18:26.670Z,20.0
2023-02-04T22:48:26.658Z,19.9
2023-02-04T23:18:26.629Z,19.8
2023-02-04T23:48:26.633Z,19.8
